Time;durP1;ratioP1;P1;durP2;ratioP2;P2;SDS_P1;SDS_P2;PMS_P1;PMS_P2;Temp;Humidity;BMP_temperature;BMP_pressure;BME280_temperature;BME280_humidity;BME280_pressure;Samples;Min_cycle;Max_cycle;Signal;HPM_P1;HPM_P2
2023/04/21 00:02:20;;;;;;;7.90;3.97;;;;;;;5.89;nan;99084.38;4986590;28;20708;-77
2023/04/21 00:04:46;;;;;;;5.80;4.03;;;;;;;5.93;nan;99089.34;4984241;28;20210;-76
2023/04/21 00:07:13;;;;;;;3.10;2.57;;;;;;;5.92;nan;99079.84;4983728;28;20211;-77
2023/04/21 00:09:39;;;;;;;4.97;3.15;;;;;;;5.84;nan;99074.19;4964660;28;20265;-77
2023/04/21 00:12:05;;;;;;;8.35;3.15;;;;;;;5.71;nan;99078.34;4984576;28;20208;-77
2023/04/21 00:14:30;;;;;;;8.77;3.63;;;;;;;5.70;nan;99071.47;4984261;28;20226;-77
2023/04/21 00:16:55;;;;;;;4.00;2.87;;;;;;;5.71;nan;99079.19;4982114;28;20483;-77
2023/04/21 00:19:22;;;;;;;6.70;4.00;;;;;;;5.71;nan;99071.38;4983325;28;20257;-77
2023/04/21 00:21:51;;;;;;;4.72;2.50;;;;;;;5.71;nan;99073.97;4985217;28;20223;-78
2023/04/21 00:24:25;;;;;;;3.05;2.67;;;;;;;5.70;nan;99068.88;4982631;28;20207;-78
2023/04/21 00:26:54;;;;;;;4.07;3.15;;;;;;;5.66;nan;99064.72;4982602;28;20239;-76
2023/04/21 00:29:20;;;;;;;3.17;2.83;;;;;;;5.62;nan;99058.84;4966184;28;20320;-76
2023/04/21 00:31:45;;;;;;;5.33;3.30;;;;;;;5.61;nan;99070.16;4986023;28;20203;-76
2023/04/21 00:34:10;;;;;;;5.40;2.90;;;;;;;5.61;nan;99069.31;4967605;28;20196;-76
2023/04/21 00:36:36;;;;;;;5.67;3.10;;;;;;;5.59;nan;99068.56;4969298;28;20581;-76
2023/04/21 00:39:01;;;;;;;7.20;4.10;;;;;;;5.55;nan;99060.06;4968316;28;20490;-76
2023/04/21 00:41:28;;;;;;;8.60;3.78;;;;;;;5.49;nan;99058.63;4981525;28;20257;-78
2023/04/21 00:44:06;;;;;;;5.25;3.65;;;;;;;5.35;nan;99053.28;4983452;28;20255;-76
2023/04/21 00:46:32;;;;;;;6.90;3.70;;;;;;;5.25;nan;99057.28;4984381;28;20218;-76
2023/04/21 00:48:58;;;;;;;4.57;3.72;;;;;;;5.17;nan;99059.44;4981275;28;20334;-77
2023/04/21 00:51:26;;;;;;;7.22;3.80;;;;;;;5.16;nan;99057.72;4968224;28;20204;-77
2023/04/21 00:53:54;;;;;;;4.35;3.95;;;;;;;5.17;nan;99067.25;4966101;28;20214;-77
2023/04/21 00:56:20;;;;;;;10.25;4.68;;;;;;;5.17;nan;99067.25;4984159;28;20210;-77
2023/04/21 00:58:47;;;;;;;7.13;4.47;;;;;;;5.10;nan;99062.34;4983179;28;20252;-77
2023/04/21 01:01:13;;;;;;;6.80;4.30;;;;;;;5.00;nan;99068.09;4981597;28;20486;-77
2023/04/21 01:03:38;;;;;;;7.80;4.50;;;;;;;4.89;nan;99071.22;4982344;28;20219;-76
2023/04/21 01:06:05;;;;;;;6.78;4.50;;;;;;;4.78;nan;99076.06;4983232;28;20454;-76
2023/04/21 01:08:30;;;;;;;6.00;3.10;;;;;;;4.67;nan;99071.38;4981148;28;20313;-76
2023/04/21 01:10:56;;;;;;;7.33;3.10;;;;;;;4.55;nan;99078.03;4983801;28;20317;-77
2023/04/21 01:13:21;;;;;;;3.70;2.73;;;;;;;4.47;nan;99076.72;4966418;28;20243;-77
2023/04/21 01:15:48;;;;;;;6.83;3.30;;;;;;;4.48;nan;99071.41;4983324;28;20225;-77
2023/04/21 01:18:13;;;;;;;5.07;2.90;;;;;;;4.54;nan;99075.53;4982655;28;20640;-75
2023/04/21 01:20:39;;;;;;;3.73;3.30;;;;;;;4.61;nan;99074.28;4962807;28;20722;-75
2023/04/21 01:23:05;;;;;;;2.40;2.20;;;;;;;4.68;nan;99075.69;4983931;28;20242;-76
2023/04/21 01:25:32;;;;;;;5.47;2.00;;;;;;;4.76;nan;99080.53;4986852;28;20218;-76
2023/04/21 01:27:57;;;;;;;3.72;2.72;;;;;;;4.80;nan;99076.84;4969335;28;20295;-76
2023/04/21 01:30:23;;;;;;;3.00;2.60;;;;;;;4.80;nan;99069.88;4982262;28;20629;-76
2023/04/21 01:32:50;;;;;;;2.95;2.65;;;;;;;4.79;nan;99073.41;4982599;28;20513;-76
2023/04/21 01:35:15;;;;;;;6.47;3.95;;;;;;;4.77;nan;99074.41;4983101;28;20858;-76
2023/04/21 01:37:41;;;;;;;4.43;3.07;;;;;;;4.65;nan;99074.09;4982242;28;20484;-76
2023/04/21 01:40:08;;;;;;;5.80;3.13;;;;;;;4.56;nan;99079.69;4982677;28;20209;-76
2023/04/21 01:42:35;;;;;;;3.55;2.10;;;;;;;4.54;nan;99076.34;4972850;28;20370;-76
2023/04/21 01:45:01;;;;;;;5.13;2.90;;;;;;;4.55;nan;99078.03;4983653;28;20215;-76
2023/04/21 01:47:27;;;;;;;3.40;2.70;;;;;;;4.58;nan;99077.88;4981172;28;20242;-76
2023/04/21 01:49:52;;;;;;;3.50;2.90;;;;;;;4.61;nan;99080.34;4980352;28;20477;-76
2023/04/21 01:52:18;;;;;;;5.13;2.87;;;;;;;4.60;nan;99076.06;4973141;28;20240;-76
2023/04/21 01:54:44;;;;;;;2.80;2.47;;;;;;;4.60;nan;99076.06;4967578;28;20243;-76
2023/04/21 01:57:10;;;;;;;3.43;2.53;;;;;;;4.57;nan;99065.81;4964366;28;20309;-76
2023/04/21 01:59:35;;;;;;;5.07;2.93;;;;;;;4.55;nan;99072.00;4968349;28;20234;-76
2023/04/21 02:02:01;;;;;;;3.70;2.47;;;;;;;4.52;nan;99075.56;4965948;28;20903;-76
2023/04/21 02:04:27;;;;;;;2.50;2.30;;;;;;;4.51;nan;99073.91;4969015;28;21149;-76
2023/04/21 02:06:52;;;;;;;5.83;2.87;;;;;;;4.50;nan;99076.56;4962813;28;20314;-76
2023/04/21 02:09:18;;;;;;;4.53;2.97;;;;;;;4.50;nan;99076.56;4963418;28;20393;-76
2023/04/21 02:11:43;;;;;;;3.13;2.70;;;;;;;4.51;nan;99070.44;4981345;28;20213;-76
2023/04/21 02:14:09;;;;;;;3.90;3.10;;;;;;;4.50;nan;99064.41;4964448;28;20227;-76
2023/04/21 02:16:34;;;;;;;3.40;2.20;;;;;;;4.52;nan;99072.97;4965250;28;20207;-76
2023/04/21 02:19:00;;;;;;;5.13;2.87;;;;;;;4.49;nan;99073.13;4966157;28;20210;-76
2023/04/21 02:21:26;;;;;;;2.73;2.53;;;;;;;4.44;nan;99070.72;4966819;28;20199;-76
2023/04/21 02:23:51;;;;;;;3.65;3.03;;;;;;;4.37;nan;99068.50;4968365;28;20214;-76
2023/04/21 02:26:17;;;;;;;5.43;2.67;;;;;;;4.29;nan;99066.25;4967225;28;20216;-76
2023/04/21 02:28:43;;;;;;;5.83;2.77;;;;;;;4.26;nan;99061.19;4980150;28;20392;-76
2023/04/21 02:31:09;;;;;;;4.60;3.17;;;;;;;4.25;nan;99063.88;4983578;28;20799;-76
2023/04/21 02:33:34;;;;;;;3.80;1.90;;;;;;;4.26;nan;99065.56;4968338;28;20330;-76
2023/04/21 02:36:00;;;;;;;4.88;2.67;;;;;;;4.29;nan;99066.25;4982470;28;21035;-76
2023/04/21 02:38:25;;;;;;;4.67;2.63;;;;;;;4.34;nan;99066.03;4966145;28;20328;-76
2023/04/21 02:40:50;;;;;;;3.83;2.50;;;;;;;4.33;nan;99066.97;4972724;28;20599;-76
2023/04/21 02:43:17;;;;;;;4.53;2.15;;;;;;;4.26;nan;99062.94;4982094;28;20267;-76
2023/04/21 02:45:42;;;;;;;3.43;2.20;;;;;;;4.14;nan;99051.38;4979823;28;20309;-76
2023/04/21 02:48:08;;;;;;;3.07;2.13;;;;;;;4.01;nan;99058.88;4972127;28;20231;-76
2023/04/21 02:50:34;;;;;;;2.33;2.00;;;;;;;3.91;nan;99055.84;4984160;28;20424;-76
2023/04/21 02:52:59;;;;;;;4.73;2.37;;;;;;;3.82;nan;99052.84;4964999;28;20231;-76
2023/04/21 02:55:25;;;;;;;2.03;1.80;;;;;;;3.71;nan;99058.50;4962694;28;20848;-76
2023/04/21 02:57:50;;;;;;;2.10;1.83;;;;;;;3.66;nan;99063.91;4967709;28;20254;-76
2023/04/21 03:00:16;;;;;;;2.60;2.10;;;;;;;3.67;nan;99063.00;4980866;28;20595;-76
2023/04/21 03:02:43;;;;;;;3.47;2.30;;;;;;;3.67;nan;99068.22;4966078;28;20512;-76
2023/04/21 03:05:08;;;;;;;3.20;2.30;;;;;;;3.72;nan;99066.22;4969390;28;20443;-76
2023/04/21 03:07:34;;;;;;;2.17;1.97;;;;;;;3.75;nan;99065.25;4982647;28;20899;-76
2023/04/21 03:10:00;;;;;;;2.37;2.17;;;;;;;3.80;nan;99068.47;4996384;23;20227;-79
2023/04/21 03:12:26;;;;;;;5.43;3.20;;;;;;;3.82;nan;99066.66;4965506;28;20212;-80
2023/04/21 03:14:51;;;;;;;6.50;3.33;;;;;;;3.80;nan;99067.66;4977830;28;20215;-80
2023/04/21 03:17:17;;;;;;;5.57;2.90;;;;;;;3.71;nan;99069.75;4981351;28;20266;-80
2023/04/21 03:19:42;;;;;;;2.80;2.60;;;;;;;3.63;nan;99069.25;4959183;28;20215;-80
2023/04/21 03:22:07;;;;;;;2.43;2.20;;;;;;;3.58;nan;99063.41;4963112;28;20204;-80
2023/04/21 03:24:33;;;;;;;5.50;2.83;;;;;;;3.56;nan;99057.41;4978807;28;20278;-80
2023/04/21 03:26:59;;;;;;;4.77;2.33;;;;;;;3.59;nan;99062.47;4984617;28;20197;-79
2023/04/21 03:29:24;;;;;;;3.83;3.00;;;;;;;3.65;nan;99051.84;4983045;28;20843;-80
2023/04/21 03:31:49;;;;;;;4.10;2.43;;;;;;;3.70;nan;99055.09;4970516;28;20652;-79
2023/04/21 03:34:15;;;;;;;3.83;2.50;;;;;;;3.77;nan;99056.47;4965968;28;20550;-80
2023/04/21 03:36:41;;;;;;;3.03;2.25;;;;;;;3.81;nan;99056.34;4977967;28;21113;-80
2023/04/21 03:39:07;;;;;;;10.60;2.60;;;;;;;3.81;nan;99058.94;4964641;28;20631;-80
2023/04/21 03:41:33;;;;;;;3.30;1.80;;;;;;;3.74;nan;99055.78;4966927;28;20710;-80
2023/04/21 03:43:58;;;;;;;2.40;1.83;;;;;;;3.66;nan;99058.72;4982894;28;20224;-79
2023/04/21 03:46:24;;;;;;;1.80;1.70;;;;;;;3.57;nan;99063.50;4981082;28;20647;-79
2023/04/21 03:48:49;;;;;;;2.93;1.87;;;;;;;3.52;nan;99063.69;4982637;28;20222;-79
2023/04/21 03:51:15;;;;;;;2.10;1.87;;;;;;;3.49;nan;99074.19;4982176;28;20516;-80
2023/04/21 03:53:40;;;;;;;3.27;2.30;;;;;;;3.48;nan;99069.91;4983462;28;20266;-80
2023/04/21 03:56:06;;;;;;;2.77;2.50;;;;;;;3.48;nan;99070.75;4982054;28;20214;-80
2023/04/21 03:58:32;;;;;;;2.10;1.90;;;;;;;3.48;nan;99073.38;4982368;28;20309;-79
2023/04/21 04:00:57;;;;;;;3.73;2.70;;;;;;;3.44;nan;99076.16;4984670;28;20802;-79
2023/04/21 04:03:22;;;;;;;4.03;2.63;;;;;;;3.43;nan;99079.63;4982332;28;20209;-79
2023/04/21 04:05:48;;;;;;;4.53;3.43;;;;;;;3.46;nan;99074.34;4978362;28;20458;-80
2023/04/21 04:08:13;;;;;;;2.73;2.30;;;;;;;3.47;nan;99076.00;4981224;28;20231;-80
2023/04/21 04:10:39;;;;;;;4.50;2.37;;;;;;;3.46;nan;99075.19;4965097;28;20714;-80
2023/04/21 04:13:04;;;;;;;3.00;2.53;;;;;;;3.46;nan;99084.72;4981113;28;20235;-80
2023/04/21 04:15:29;;;;;;;4.83;3.20;;;;;;;3.39;nan;99084.13;4982319;28;20216;-80
2023/04/21 04:17:55;;;;;;;2.60;2.30;;;;;;;3.32;nan;99078.38;4982632;28;20358;-80
2023/04/21 04:20:20;;;;;;;2.60;2.13;;;;;;;3.26;nan;99077.75;4983415;28;20223;-80
2023/04/21 04:22:55;;;;;;;2.10;1.90;;;;;;;3.13;nan;99082.63;4984425;28;20682;-80
2023/04/21 04:25:20;;;;;;;3.60;2.60;;;;;;;3.08;nan;99085.44;4982976;28;20225;-80
2023/04/21 04:27:48;;;;;;;2.47;2.27;;;;;;;3.13;nan;99089.56;4979857;28;20222;-80
2023/04/21 04:30:13;;;;;;;3.67;2.53;;;;;;;3.14;nan;99088.69;4982020;28;20222;-80
2023/04/21 04:32:40;;;;;;;3.40;2.40;;;;;;;3.15;nan;99090.34;4982734;28;20289;-80
2023/04/21 04:35:06;;;;;;;3.72;3.20;;;;;;;3.14;nan;99094.69;4975945;28;20589;-79
2023/04/21 04:37:33;;;;;;;3.40;3.05;;;;;;;3.14;nan;99089.50;4978063;28;20219;-80
2023/04/21 04:39:59;;;;;;;3.83;3.53;;;;;;;3.14;nan;99089.50;4978643;28;20508;-80
2023/04/21 04:42:24;;;;;;;5.35;4.60;;;;;;;3.14;nan;99091.28;4979465;28;20247;-80
2023/04/21 04:44:53;;;;;;;3.80;3.50;;;;;;;3.13;nan;99086.97;4982482;28;20354;-80
2023/04/21 04:47:19;;;;;;;3.22;2.80;;;;;;;3.10;nan;99090.53;4982719;28;20219;-80
2023/04/21 04:49:44;;;;;;;3.63;3.07;;;;;;;3.06;nan;99086.41;4956269;28;20513;-80
2023/04/21 04:52:10;;;;;;;4.30;3.90;;;;;;;3.01;nan;99086.56;4972017;28;20466;-80
2023/04/21 04:54:35;;;;;;;7.77;4.70;;;;;;;2.96;nan;99093.69;4978449;28;20234;-79
2023/04/21 04:57:01;;;;;;;9.47;5.20;;;;;;;2.94;nan;99092.91;4974027;28;20418;-79
2023/04/21 04:59:27;;;;;;;6.13;3.77;;;;;;;2.92;nan;99089.56;4971246;28;20259;-80
2023/04/21 05:01:52;;;;;;;3.10;2.85;;;;;;;2.95;nan;99094.63;4976062;28;20219;-80
2023/04/21 05:04:18;;;;;;;6.90;3.77;;;;;;;2.98;nan;99093.66;4974981;28;20498;-80
2023/04/21 05:06:47;;;;;;;11.20;4.40;;;;;;;3.03;nan;99097.75;4980679;28;20216;-79
2023/04/21 05:09:16;;;;;;;3.67;2.92;;;;;;;3.17;nan;99104.94;4980617;28;20471;-81
2023/04/21 05:11:45;;;;;;;3.67;2.60;;;;;;;3.67;nan;99099.38;4979693;28;20245;-80
2023/04/21 05:14:24;;;;;;;4.80;3.65;;;;;;;4.32;nan;99093.84;4982187;28;20255;-79
2023/04/21 05:16:50;;;;;;;4.35;3.88;;;;;;;5.11;nan;99094.41;4982440;28;20266;-80
2023/04/21 05:19:20;;;;;;;7.90;4.88;;;;;;;5.83;nan;99095.94;4983175;28;20242;-80
2023/04/21 05:21:50;;;;;;;9.52;3.85;;;;;;;6.49;nan;99099.44;4966926;28;20375;-80
2023/04/21 05:24:23;;;;;;;6.88;3.33;;;;;;;7.14;nan;99092.25;4984009;28;20251;-80
2023/04/21 05:26:52;;;;;;;4.38;3.40;;;;;;;7.71;nan;99096.75;4964132;28;20212;-80
2023/04/21 05:29:17;;;;;;;4.43;4.03;;;;;;;8.19;nan;99084.25;4978349;28;20216;-80
2023/04/21 05:31:42;;;;;;;3.33;3.03;;;;;;;8.70;nan;99086.31;4977378;28;20208;-80
2023/04/21 05:34:08;;;;;;;4.97;4.03;;;;;;;9.15;nan;99081.63;4977476;28;20310;-80
2023/04/21 05:36:33;;;;;;;4.20;3.80;;;;;;;9.63;nan;99087.16;4977109;28;20232;-80
2023/04/21 05:38:58;;;;;;;5.67;3.60;;;;;;;9.82;nan;99081.47;4975329;28;20414;-80
2023/04/21 05:41:24;;;;;;;8.47;5.13;;;;;;;9.82;nan;99087.56;4975147;28;20212;-80
2023/04/21 05:43:49;;;;;;;5.97;4.77;;;;;;;10.05;nan;99087.78;4975181;28;21239;-80
2023/04/21 05:46:15;;;;;;;5.33;4.80;;;;;;;10.32;nan;99085.84;4976208;28;20211;-80
2023/04/21 05:48:40;;;;;;;7.13;4.10;;;;;;;10.33;nan;99094.56;4973219;28;20539;-80
2023/04/21 05:51:12;;;;;;;4.20;3.10;;;;;;;10.14;nan;99100.22;4973883;28;20375;-80
2023/04/21 05:53:38;;;;;;;4.38;3.08;;;;;;;9.94;nan;99091.97;4975895;28;20223;-80
2023/04/21 05:56:05;;;;;;;6.05;4.88;;;;;;;9.71;nan;99095.31;4976871;28;20550;-80
2023/04/21 05:58:30;;;;;;;7.90;5.30;;;;;;;9.34;nan;99097.81;4971210;28;20210;-80
2023/04/21 06:00:55;;;;;;;6.37;4.87;;;;;;;9.02;nan;99097.34;4974412;28;20189;-80
2023/04/21 06:03:21;;;;;;;4.00;3.10;;;;;;;8.81;nan;99097.78;4974975;28;20229;-80
2023/04/21 06:05:46;;;;;;;5.37;4.87;;;;;;;8.83;nan;99093.28;4977631;28;20204;-80
2023/04/21 06:08:12;;;;;;;9.50;4.40;;;;;;;9.19;nan;99088.34;4975810;28;20212;-80
2023/04/21 06:10:37;;;;;;;5.53;3.70;;;;;;;9.86;nan;99083.78;4976237;28;20212;-80
2023/04/21 06:13:03;;;;;;;4.73;4.03;;;;;;;10.68;nan;99088.56;4976171;28;20632;-81
2023/04/21 06:15:28;;;;;;;3.97;3.23;;;;;;;11.35;nan;99082.78;4976808;28;20876;-80
2023/04/21 06:17:54;;;;;;;5.17;4.10;;;;;;;11.76;nan;99070.88;4975418;28;20212;-81
2023/04/21 06:20:20;;;;;;;4.97;3.97;;;;;;;12.24;nan;99068.88;4978080;28;20221;-81
2023/04/21 06:22:47;;;;;;;4.05;3.55;;;;;;;12.78;nan;99072.47;4978214;28;20434;-80
2023/04/21 06:25:13;;;;;;;3.90;3.30;;;;;;;13.18;nan;99062.13;4979147;28;21129;-81
2023/04/21 06:27:41;;;;;;;4.03;3.73;;;;;;;13.62;nan;99060.22;4981421;28;20505;-80
2023/04/21 06:30:07;;;;;;;4.88;3.33;;;;;;;13.97;nan;99056.38;4982637;28;20711;-81
2023/04/21 06:32:32;;;;;;;4.70;4.28;;;;;;;14.23;nan;99050.59;4981121;28;20258;-81
2023/04/21 06:34:58;;;;;;;4.40;3.70;;;;;;;14.54;nan;99052.25;4981937;28;20644;-81
2023/04/21 06:37:23;;;;;;;3.47;3.13;;;;;;;14.85;nan;99049.50;4983457;28;20250;-81
2023/04/21 06:39:49;;;;;;;4.20;3.10;;;;;;;15.08;nan;99044.78;4982341;28;20212;-80
2023/04/21 06:42:14;;;;;;;4.50;3.17;;;;;;;15.21;nan;99047.97;4982320;28;20287;-81
2023/04/21 06:44:42;;;;;;;3.03;2.70;;;;;;;15.32;nan;99038.22;4980821;28;20965;-81
2023/04/21 06:47:08;;;;;;;3.80;3.33;;;;;;;15.43;nan;99048.63;4981973;28;20213;-81
2023/04/21 06:49:33;;;;;;;3.53;3.10;;;;;;;15.47;nan;99042.91;4980696;28;20215;-81
2023/04/21 06:51:59;;;;;;;3.83;3.43;;;;;;;15.36;nan;99039.56;4980846;28;20208;-81
2023/04/21 06:54:24;;;;;;;3.80;3.50;;;;;;;15.01;nan;99033.94;4981178;28;20485;-81
2023/04/21 06:56:50;;;;;;;2.93;2.73;;;;;;;14.40;nan;99031.47;4981806;28;20204;-80
2023/04/21 06:59:15;;;;;;;3.50;3.20;;;;;;;13.61;nan;99033.94;4981805;28;20545;-80
2023/04/21 07:01:41;;;;;;;2.73;2.53;;;;;;;12.75;nan;99035.84;4983728;28;20242;-80
2023/04/21 07:04:06;;;;;;;4.93;4.43;;;;;;;11.94;nan;99036.13;4984408;28;20187;-80
2023/04/21 07:06:32;;;;;;;3.83;3.53;;;;;;;11.30;nan;99027.88;4984216;28;20207;-80
2023/04/21 07:08:57;;;;;;;4.33;3.37;;;;;;;10.84;nan;99021.66;4983869;28;20346;-80
2023/04/21 07:11:23;;;;;;;4.40;3.70;;;;;;;10.56;nan;99025.50;4982327;28;20262;-80
2023/04/21 07:13:48;;;;;;;4.53;3.83;;;;;;;10.76;nan;99025.81;4984655;28;20251;-80
2023/04/21 07:16:13;;;;;;;4.13;3.50;;;;;;;11.39;nan;99035.06;4983708;28;20195;-80
2023/04/21 07:18:40;;;;;;;3.60;3.23;;;;;;;12.25;nan;99032.84;4984411;28;20254;-80
2023/04/21 07:21:06;;;;;;;3.63;2.97;;;;;;;13.00;nan;99022.31;4983347;28;20302;-80
2023/04/21 07:23:31;;;;;;;4.70;3.23;;;;;;;13.65;nan;99014.25;4984843;28;20261;-80
2023/04/21 07:25:57;;;;;;;3.90;3.60;;;;;;;14.15;nan;99007.22;4991591;28;20211;-80
2023/04/21 07:28:22;;;;;;;3.10;2.70;;;;;;;14.30;nan;99015.59;4990963;28;20203;-80
2023/04/21 07:30:47;;;;;;;3.87;3.07;;;;;;;14.48;nan;99014.94;4989737;28;20217;-80
2023/04/21 07:33:13;;;;;;;3.50;3.07;;;;;;;14.72;nan;99012.78;4991005;28;20465;-80
2023/04/21 07:35:38;;;;;;;3.53;2.40;;;;;;;14.97;nan;99021.94;4989244;28;20571;-80
2023/04/21 07:38:04;;;;;;;4.80;3.40;;;;;;;15.32;nan;99017.88;4989072;28;20200;-78
2023/04/21 07:40:30;;;;;;;3.50;3.20;;;;;;;15.48;nan;99012.00;4988775;28;20219;-80
2023/04/21 07:42:55;;;;;;;3.53;2.90;;;;;;;15.84;nan;98994.47;4988543;28;20724;-80
2023/04/21 07:45:20;;;;;;;4.40;4.00;;;;;;;16.13;nan;99014.69;4988768;28;20214;-80
2023/04/21 07:47:46;;;;;;;2.73;2.53;;;;;;;16.41;nan;99015.50;4988384;28;20469;-80
2023/04/21 07:50:11;;;;;;;4.60;3.97;;;;;;;16.62;nan;98996.66;4988069;28;20672;-80
2023/04/21 07:52:36;;;;;;;3.67;3.37;;;;;;;17.01;nan;98989.25;4990248;28;20221;-80
2023/04/21 07:55:02;;;;;;;4.73;4.33;;;;;;;17.17;nan;98980.53;4990411;28;20203;-80
2023/04/21 07:57:30;;;;;;;5.00;3.90;;;;;;;17.35;nan;98980.50;4991624;28;20211;-80
2023/04/21 07:59:56;;;;;;;4.45;4.03;;;;;;;17.61;nan;98979.69;4987947;28;20731;-79
2023/04/21 08:02:22;;;;;;;5.70;3.23;;;;;;;17.68;nan;98978.03;4990353;28;20315;-80
2023/04/21 08:04:47;;;;;;;4.40;3.70;;;;;;;17.63;nan;98977.69;4988250;28;20196;-80
2023/04/21 08:07:14;;;;;;;3.80;3.50;;;;;;;17.70;nan;98970.75;4989021;28;20204;-80
2023/04/21 08:09:39;;;;;;;3.15;2.90;;;;;;;17.68;nan;98975.38;4988470;28;20742;-80
2023/04/21 08:12:05;;;;;;;4.90;3.00;;;;;;;17.69;nan;98967.28;4988320;28;20207;-81
2023/04/21 08:14:31;;;;;;;4.13;3.73;;;;;;;17.65;nan;98962.44;4988108;28;20218;-80
2023/04/21 08:16:57;;;;;;;3.63;3.33;;;;;;;17.93;nan;98955.13;4988015;28;20227;-80
2023/04/21 08:19:23;;;;;;;4.60;3.20;;;;;;;18.27;nan;98946.22;4988422;28;20631;-80
2023/04/21 08:21:48;;;;;;;3.10;2.80;;;;;;;18.63;nan;98940.63;4988142;28;20633;-80
2023/04/21 08:24:14;;;;;;;3.30;3.00;;;;;;;18.87;nan;98939.81;4986865;28;20192;-80
2023/04/21 08:26:39;;;;;;;3.70;3.43;;;;;;;19.04;nan;98936.16;4986334;28;20207;-80
2023/04/21 08:29:06;;;;;;;3.50;3.20;;;;;;;18.71;nan;98928.19;4988419;28;20208;-80
2023/04/21 08:31:31;;;;;;;3.33;3.03;;;;;;;18.37;nan;98935.47;4969385;28;20216;-80
2023/04/21 08:33:57;;;;;;;3.50;3.20;;;;;;;18.05;nan;98945.03;4988377;28;20266;-80
2023/04/21 08:36:22;;;;;;;4.13;3.23;;;;;;;17.97;nan;98932.53;4986344;28;20209;-80
2023/04/21 08:38:48;;;;;;;4.00;3.10;;;;;;;18.02;nan;98924.09;4987746;28;20290;-80
2023/04/21 08:41:13;;;;;;;3.27;2.90;;;;;;;18.06;nan;98922.75;4988340;28;20242;-81
2023/04/21 08:43:39;;;;;;;4.67;3.50;;;;;;;18.09;nan;98927.75;4988731;28;20246;-80
2023/04/21 08:46:08;;;;;;;3.17;2.87;;;;;;;17.84;nan;98930.31;4988700;28;20211;-80
2023/04/21 08:48:37;;;;;;;4.00;3.58;;;;;;;17.62;nan;98934.34;4985010;28;20604;-80
2023/04/21 08:51:03;;;;;;;4.00;3.35;;;;;;;17.38;nan;98939.56;4984822;28;20668;-80
2023/04/21 08:53:28;;;;;;;4.93;3.55;;;;;;;17.03;nan;98934.19;4985181;28;20438;-81
2023/04/21 08:55:55;;;;;;;4.87;3.67;;;;;;;16.59;nan;98926.19;4987241;28;20549;-80
2023/04/21 08:58:21;;;;;;;3.47;3.15;;;;;;;16.19;nan;98923.16;4988282;28;20596;-80
2023/04/21 09:00:48;;;;;;;3.65;3.35;;;;;;;15.90;nan;98918.88;4987684;28;20196;-80
2023/04/21 09:03:20;;;;;;;7.15;3.35;;;;;;;15.58;nan;98912.22;4985220;28;20216;-79
2023/04/21 09:06:00;;;;;;;3.67;3.20;;;;;;;15.57;nan;98917.63;4984109;28;20366;-80
2023/04/21 09:08:27;;;;;;;5.63;3.90;;;;;;;15.46;nan;98923.94;5003355;23;20280;-81
2023/04/21 09:10:54;;;;;;;3.88;3.10;;;;;;;15.35;nan;98918.84;4981795;28;20281;-78
2023/04/21 09:13:20;;;;;;;3.90;3.50;;;;;;;15.36;nan;98923.16;4988141;28;20223;-79
2023/04/21 09:15:48;;;;;;;5.90;3.72;;;;;;;15.27;nan;98928.31;4997823;28;20253;-78
2023/04/21 09:18:21;;;;;;;4.07;3.75;;;;;;;15.36;nan;98917.84;4997495;28;20226;-83
2023/04/21 09:20:50;;;;;;;4.05;3.65;;;;;;;15.58;nan;98917.50;4978060;28;20234;-79
2023/04/21 09:23:16;;;;;;;2.80;2.60;;;;;;;15.79;nan;98919.91;4978027;28;20675;-79
2023/04/21 09:25:45;;;;;;;3.30;3.00;;;;;;;15.81;nan;98917.97;4978248;28;20235;-83
2023/04/21 09:28:12;;;;;;;4.00;3.60;;;;;;;15.85;nan;98911.41;4961542;28;20485;-80
2023/04/21 09:30:40;;;;;;;6.07;5.57;;;;;;;15.91;nan;98915.28;4978273;28;20303;-81
2023/04/21 09:33:06;;;;;;;4.15;3.15;;;;;;;16.01;nan;98918.66;4978549;28;20215;-80
2023/04/21 09:35:34;;;;;;;4.47;3.92;;;;;;;15.99;nan;98923.31;4977635;28;20208;-79
2023/04/21 09:38:01;;;;;;;6.05;4.25;;;;;;;15.92;nan;98930.16;4977620;28;20203;-84
2023/04/21 09:40:29;;;;;;;5.03;3.72;;;;;;;16.05;nan;98928.00;4960457;28;20644;-81
2023/04/21 09:42:55;;;;;;;3.80;3.50;;;;;;;16.21;nan;98932.63;4977670;28;20249;-81
2023/04/21 09:45:27;;;;;;;3.63;3.33;;;;;;;16.25;nan;98925.22;4978220;28;20618;-77
2023/04/21 09:47:59;;;;;;;4.63;4.20;;;;;;;16.32;nan;98929.75;4979038;28;20322;-78
2023/04/21 09:50:25;;;;;;;4.70;3.53;;;;;;;16.32;nan;98924.47;4979281;28;20370;-80
2023/04/21 09:52:52;;;;;;;3.73;3.40;;;;;;;16.22;nan;98925.50;4979008;28;20638;-80
2023/04/21 09:55:21;;;;;;;4.82;4.15;;;;;;;16.06;nan;98921.69;4977944;28;20504;-83
2023/04/21 09:57:49;;;;;;;3.55;3.25;;;;;;;16.05;nan;98922.69;4977743;28;20338;-78
2023/04/21 10:00:20;;;;;;;4.35;3.95;;;;;;;16.22;nan;98923.69;4978327;28;20216;-80
2023/04/21 10:02:51;;;;;;;4.00;3.70;;;;;;;16.38;nan;98936.28;4978411;28;20278;-80
2023/04/21 10:05:16;;;;;;;3.67;3.28;;;;;;;16.54;nan;98938.25;4978767;28;20651;-82
2023/04/21 10:07:44;;;;;;;3.73;3.40;;;;;;;16.60;nan;98938.47;4977429;28;20257;-79
2023/04/21 10:10:21;;;;;;;5.68;3.95;;;;;;;16.63;nan;98931.19;4979201;28;20784;-79
2023/04/21 10:12:47;;;;;;;3.65;3.35;;;;;;;16.64;nan;98932.88;4978319;28;20241;-82
2023/04/21 10:15:31;;;;;;;4.33;3.80;;;;;;;16.56;nan;98926.50;4979530;28;20688;-78
2023/04/21 10:18:16;;;;;;;6.93;4.75;;;;;;;16.66;nan;98917.63;4979042;28;20505;-80
2023/04/21 10:21:06;;;;;;;6.93;5.35;;;;;;;16.72;nan;98912.56;4978435;28;20696;-79
2023/04/21 10:23:42;;;;;;;6.97;5.95;;;;;;;16.76;nan;98902.47;4978522;28;20200;-79
2023/04/21 10:26:34;;;;;;;9.80;6.68;;;;;;;16.79;nan;98896.88;4979587;28;20200;-80
2023/04/21 10:29:01;;;;;;;10.20;6.82;;;;;;;16.64;nan;98906.34;4973161;28;20243;-76
2023/04/21 10:31:36;;;;;;;9.13;6.68;;;;;;;16.64;nan;98911.66;4978651;28;20204;-79
2023/04/21 10:34:07;;;;;;;11.32;6.80;;;;;;;16.77;nan;98914.78;4979190;28;20211;-76
2023/04/21 10:36:41;;;;;;;6.70;5.80;;;;;;;16.80;nan;98910.00;4978113;28;20289;-76
2023/04/21 10:39:06;;;;;;;7.47;6.60;;;;;;;16.75;nan;98903.47;4977614;28;20298;-76
2023/04/21 10:41:33;;;;;;;8.90;6.37;;;;;;;16.88;nan;98890.66;4979288;28;20199;-76
2023/04/21 10:44:08;;;;;;;7.68;6.72;;;;;;;16.91;nan;98885.03;4979068;28;20274;-77
2023/04/21 10:46:44;;;;;;;7.20;6.50;;;;;;;16.95;nan;98883.72;4978823;28;20215;-76
2023/04/21 10:49:19;;;;;;;8.35;7.20;;;;;;;16.92;nan;98896.47;4978994;28;20219;-84
2023/04/21 10:51:57;;;;;;;8.10;7.30;;;;;;;16.98;nan;98896.66;4980711;28;20698;-79
2023/04/21 10:54:26;;;;;;;8.48;6.68;;;;;;;16.95;nan;98894.34;4978733;28;20215;-77
2023/04/21 10:56:56;;;;;;;8.30;6.82;;;;;;;16.94;nan;98899.81;4977283;28;20262;-76
2023/04/21 10:59:23;;;;;;;7.57;6.70;;;;;;;16.95;nan;98902.28;4977106;28;20650;-76
2023/04/21 11:01:48;;;;;;;8.40;6.80;;;;;;;16.92;nan;98896.47;4974994;28;20204;-75
2023/04/21 11:04:18;;;;;;;7.87;6.50;;;;;;;16.86;nan;98894.44;4975955;28;20187;-79
2023/04/21 11:07:07;;;;;;;11.13;7.70;;;;;;;16.82;nan;98893.91;4977204;28;20195;-76
2023/04/21 11:09:33;;;;;;;10.27;7.72;;;;;;;16.78;nan;98895.22;4976598;28;20746;-78
2023/04/21 11:12:01;;;;;;;10.27;7.05;;;;;;;16.68;nan;98887.31;4977179;28;20207;-77
2023/04/21 11:14:27;;;;;;;7.88;7.05;;;;;;;16.76;nan;98887.38;4977309;28;20228;-77
2023/04/21 11:16:53;;;;;;;10.45;7.65;;;;;;;16.93;nan;98877.75;4976550;28;20570;-83
2023/04/21 11:19:23;;;;;;;9.40;8.40;;;;;;;17.02;nan;98879.47;4977141;28;20278;-81
2023/04/21 11:21:49;;;;;;;10.20;8.55;;;;;;;16.94;nan;98882.06;4977091;28;20215;-81
2023/04/21 11:24:14;;;;;;;9.25;7.90;;;;;;;16.91;nan;98885.03;4976346;28;20196;-76
2023/04/21 11:26:41;;;;;;;9.43;8.47;;;;;;;16.91;nan;98885.03;4977454;28;20211;-78
2023/04/21 11:29:09;;;;;;;10.82;9.13;;;;;;;16.83;nan;98876.19;4975327;28;20207;-76
2023/04/21 11:31:35;;;;;;;12.40;10.00;;;;;;;16.77;nan;98867.03;4976131;28;20298;-80
2023/04/21 11:34:05;;;;;;;12.45;9.88;;;;;;;16.82;nan;98859.44;4976619;28;20303;-77
2023/04/21 11:36:35;;;;;;;10.52;9.38;;;;;;;17.01;nan;98855.72;4977013;28;20259;-81
2023/04/21 11:39:12;;;;;;;10.80;8.77;;;;;;;17.31;nan;98857.06;4972607;28;20600;-80
2023/04/21 11:41:42;;;;;;;11.15;8.80;;;;;;;17.55;nan;98850.19;4972360;28;20677;-79
2023/04/21 11:44:09;;;;;;;10.50;8.45;;;;;;;17.63;nan;98845.75;4974422;28;20187;-80
2023/04/21 11:46:36;;;;;;;11.75;8.48;;;;;;;17.48;nan;98847.34;4979118;28;20655;-83
2023/04/21 11:49:03;;;;;;;10.90;9.80;;;;;;;17.18;nan;98844.22;4979818;28;20223;-77
2023/04/21 11:51:39;;;;;;;8.70;7.72;;;;;;;16.91;nan;98845.25;4993806;28;20225;-79
2023/04/21 11:54:06;;;;;;;11.05;9.90;;;;;;;16.81;nan;98852.47;4979071;28;20716;-81